sensor_id;sensor_type;location;lat;lon;timestamp;pressure;altitude;pressure_sealevel;temperature;humidity
62201;BME280;48197;42.732;27.192;2023-04-05T00:01:58;98856.38;;;1.92;100.00
62201;BME280;48197;42.732;27.192;2023-04-05T00:04:26;98854.72;;;1.88;100.00
62201;BME280;48197;42.732;27.192;2023-04-05T00:06:53;98842.63;;;1.85;100.00
62201;BME280;48197;42.732;27.192;2023-04-05T00:09:20;98870.25;;;1.83;100.00
62201;BME280;48197;42.732;27.192;2023-04-05T00:11:47;98851.91;;;1.80;100.00
62201;BME280;48197;42.732;27.192;2023-04-05T00:14:14;98885.81;;;1.83;100.00
62201;BME280;48197;42.732;27.192;2023-04-05T00:16:41;98871.41;;;1.82;100.00
62201;BME280;48197;42.732;27.192;2023-04-05T00:19:08;98881.09;;;1.80;100.00
62201;BME280;48197;42.732;27.192;2023-04-05T00:21:38;98879.50;;;1.79;100.00
62201;BME280;48197;42.732;27.192;2023-04-05T00:24:05;98866.56;;;1.72;100.00
62201;BME280;48197;42.732;27.192;2023-04-05T00:26:31;98884.00;;;1.68;100.00
62201;BME280;48197;42.732;27.192;2023-04-05T00:28:58;98883.06;;;1.56;100.00
62201;BME280;48197;42.732;27.192;2023-04-05T00:31:27;98895.31;;;1.43;100.00
62201;BME280;48197;42.732;27.192;2023-04-05T00:33:56;98886.53;;;1.30;100.00
62201;BME280;48197;42.732;27.192;2023-04-05T00:36:23;98893.47;;;1.28;100.00
62201;BME280;48197;42.732;27.192;2023-04-05T00:38:49;98880.75;;;1.35;100.00
62201;BME280;48197;42.732;27.192;2023-04-05T00:41:17;98897.53;;;1.37;100.00
62201;BME280;48197;42.732;27.192;2023-04-05T00:43:43;98893.97;;;1.33;100.00
62201;BME280;48197;42.732;27.192;2023-04-05T00:46:10;98901.34;;;1.33;100.00
62201;BME280;48197;42.732;27.192;2023-04-05T00:48:37;98895.16;;;1.36;100.00
62201;BME280;48197;42.732;27.192;2023-04-05T00:51:09;98874.59;;;1.38;100.00
62201;BME280;48197;42.732;27.192;2023-04-05T00:53:37;98870.78;;;1.43;100.00
62201;BME280;48197;42.732;27.192;2023-04-05T00:56:03;98889.78;;;1.39;100.00
62201;BME280;48197;42.732;27.192;2023-04-05T00:58:31;98880.75;;;1.35;100.00
62201;BME280;48197;42.732;27.192;2023-04-05T01:01:09;98896.25;;;1.31;100.00
62201;BME280;48197;42.732;27.192;2023-04-05T01:03:40;98894.19;;;1.25;100.00
62201;BME280;48197;42.732;27.192;2023-04-05T01:11:24;98877.97;;;1.32;100.00
62201;BME280;48197;42.732;27.192;2023-04-05T01:14:00;98878.41;;;1.34;100.00
62201;BME280;48197;42.732;27.192;2023-04-05T01:16:28;98848.81;;;1.32;100.00
62201;BME280;48197;42.732;27.192;2023-04-05T01:18:55;98883.50;;;1.35;100.00
62201;BME280;48197;42.732;27.192;2023-04-05T01:24:04;98874.22;;;1.40;100.00
62201;BME280;48197;42.732;27.192;2023-04-05T01:29:32;98860.97;;;1.38;100.00
62201;BME280;48197;42.732;27.192;2023-04-05T01:37:37;98879.78;;;1.47;100.00
62201;BME280;48197;42.732;27.192;2023-04-05T01:40:27;98875.56;;;1.50;100.00
62201;BME280;48197;42.732;27.192;2023-04-05T01:42:53;98872.84;;;1.50;100.00
62201;BME280;48197;42.732;27.192;2023-04-05T01:45:21;98887.66;;;1.52;100.00
62201;BME280;48197;42.732;27.192;2023-04-05T01:47:47;98884.19;;;1.55;100.00
62201;BME280;48197;42.732;27.192;2023-04-05T01:50:14;98895.53;;;1.57;100.00
62201;BME280;48197;42.732;27.192;2023-04-05T01:52:41;98878.47;;;1.60;100.00
62201;BME280;48197;42.732;27.192;2023-04-05T01:55:08;98885.03;;;1.59;100.00
62201;BME280;48197;42.732;27.192;2023-04-05T01:57:33;98905.31;;;1.62;100.00
62201;BME280;48197;42.732;27.192;2023-04-05T02:00:00;98869.91;;;1.62;100.00
62201;BME280;48197;42.732;27.192;2023-04-05T02:02:27;98895.16;;;1.59;100.00
62201;BME280;48197;42.732;27.192;2023-04-05T02:04:54;98850.00;;;1.58;100.00
62201;BME280;48197;42.732;27.192;2023-04-05T02:07:21;98878.81;;;1.59;100.00
62201;BME280;48197;42.732;27.192;2023-04-05T02:09:51;98897.09;;;1.58;100.00
62201;BME280;48197;42.732;27.192;2023-04-05T02:12:19;98902.16;;;1.60;100.00
62201;BME280;48197;42.732;27.192;2023-04-05T02:14:46;98918.50;;;1.60;100.00
62201;BME280;48197;42.732;27.192;2023-04-05T02:17:13;98914.97;;;1.56;100.00
62201;BME280;48197;42.732;27.192;2023-04-05T02:19:40;98904.06;;;1.56;100.00
62201;BME280;48197;42.732;27.192;2023-04-05T02:22:18;98906.00;;;1.55;100.00
62201;BME280;48197;42.732;27.192;2023-04-05T02:24:45;98906.84;;;1.59;100.00
62201;BME280;48197;42.732;27.192;2023-04-05T02:27:13;98933.63;;;1.54;100.00
62201;BME280;48197;42.732;27.192;2023-04-05T02:29:39;98927.31;;;1.50;100.00
62201;BME280;48197;42.732;27.192;2023-04-05T02:32:09;98932.38;;;1.51;100.00
62201;BME280;48197;42.732;27.192;2023-04-05T02:34:37;98958.47;;;1.52;100.00
62201;BME280;48197;42.732;27.192;2023-04-05T02:37:06;98932.69;;;1.46;100.00
62201;BME280;48197;42.732;27.192;2023-04-05T02:39:33;98934.22;;;1.43;100.00
62201;BME280;48197;42.732;27.192;2023-04-05T02:42:00;98940.00;;;1.42;100.00
62201;BME280;48197;42.732;27.192;2023-04-05T02:44:28;98957.13;;;1.42;100.00
62201;BME280;48197;42.732;27.192;2023-04-05T02:46:55;98947.41;;;1.41;100.00
62201;BME280;48197;42.732;27.192;2023-04-05T02:49:22;98963.38;;;1.43;100.00
62201;BME280;48197;42.732;27.192;2023-04-05T02:51:50;99007.31;;;1.41;100.00
62201;BME280;48197;42.732;27.192;2023-04-05T02:54:35;98969.59;;;1.43;100.00
62201;BME280;48197;42.732;27.192;2023-04-05T02:57:02;98972.34;;;1.43;100.00
62201;BME280;48197;42.732;27.192;2023-04-05T02:59:29;98984.00;;;1.44;100.00
62201;BME280;48197;42.732;27.192;2023-04-05T03:01:56;98985.94;;;1.43;100.00
62201;BME280;48197;42.732;27.192;2023-04-05T03:04:23;98999.56;;;1.43;100.00
62201;BME280;48197;42.732;27.192;2023-04-05T03:06:52;98977.78;;;1.43;100.00
62201;BME280;48197;42.732;27.192;2023-04-05T03:09:23;98984.44;;;1.46;100.00
62201;BME280;48197;42.732;27.192;2023-04-05T03:11:52;98988.66;;;1.43;100.00
62201;BME280;48197;42.732;27.192;2023-04-05T03:14:19;98995.69;;;1.45;100.00
62201;BME280;48197;42.732;27.192;2023-04-05T03:16:46;98988.28;;;1.45;100.00
62201;BME280;48197;42.732;27.192;2023-04-05T03:19:16;98982.50;;;1.47;100.00
62201;BME280;48197;42.732;27.192;2023-04-05T03:21:44;98995.31;;;1.46;100.00
62201;BME280;48197;42.732;27.192;2023-04-05T03:24:11;98986.28;;;1.42;100.00
62201;BME280;48197;42.732;27.192;2023-04-05T03:26:37;99000.00;;;1.46;100.00
62201;BME280;48197;42.732;27.192;2023-04-05T03:29:03;99013.19;;;1.43;100.00
62201;BME280;48197;42.732;27.192;2023-04-05T03:31:30;98998.41;;;1.45;100.00
62201;BME280;48197;42.732;27.192;2023-04-05T03:33:57;98978.56;;;1.44;100.00
62201;BME280;48197;42.732;27.192;2023-04-05T03:36:24;98993.72;;;1.45;100.00
62201;BME280;48197;42.732;27.192;2023-04-05T03:38:54;98995.69;;;1.45;100.00
62201;BME280;48197;42.732;27.192;2023-04-05T03:41:21;98985.56;;;1.45;100.00
62201;BME280;48197;42.732;27.192;2023-04-05T03:43:48;98995.75;;;1.48;100.00
62201;BME280;48197;42.732;27.192;2023-04-05T03:46:15;98997.69;;;1.48;100.00
62201;BME280;48197;42.732;27.192;2023-04-05T03:48:42;99007.44;;;1.49;100.00
62201;BME280;48197;42.732;27.192;2023-04-05T03:51:09;99003.19;;;1.51;100.00
62201;BME280;48197;42.732;27.192;2023-04-05T03:53:36;99014.59;;;1.57;100.00
62201;BME280;48197;42.732;27.192;2023-04-05T03:56:02;99004.97;;;1.63;100.00
62201;BME280;48197;42.732;27.192;2023-04-05T03:58:29;99012.84;;;1.68;100.00
62201;BME280;48197;42.732;27.192;2023-04-05T04:00:56;99035.19;;;1.77;100.00
62201;BME280;48197;42.732;27.192;2023-04-05T04:03:23;99022.34;;;1.78;100.00
62201;BME280;48197;42.732;27.192;2023-04-05T04:05:51;99021.63;;;1.81;100.00
62201;BME280;48197;42.732;27.192;2023-04-05T04:08:18;99034.59;;;1.88;100.00
62201;BME280;48197;42.732;27.192;2023-04-05T04:10:45;99028.41;;;1.91;100.00
62201;BME280;48197;42.732;27.192;2023-04-05T04:13:12;99003.16;;;1.94;100.00
62201;BME280;48197;42.732;27.192;2023-04-05T04:15:39;99037.13;;;2.00;100.00
62201;BME280;48197;42.732;27.192;2023-04-05T04:18:05;99038.00;;;2.04;100.00
62201;BME280;48197;42.732;27.192;2023-04-05T04:20:32;99025.22;;;2.08;100.00
62201;BME280;48197;42.732;27.192;2023-04-05T04:22:59;99028.78;;;2.12;100.00
62201;BME280;48197;42.732;27.192;2023-04-05T04:25:26;99040.53;;;2.16;100.00
62201;BME280;48197;42.732;27.192;2023-04-05T04:27:56;99043.31;;;2.20;100.00
62201;BME280;48197;42.732;27.192;2023-04-05T04:30:22;99032.09;;;2.25;100.00
62201;BME280;48197;42.732;27.192;2023-04-05T04:32:50;99044.28;;;2.31;100.00
62201;BME280;48197;42.732;27.192;2023-04-05T04:35:17;99042.44;;;2.39;100.00
62201;BME280;48197;42.732;27.192;2023-04-05T04:37:53;99057.34;;;2.45;100.00
62201;BME280;48197;42.732;27.192;2023-04-05T04:40:21;99090.63;;;2.54;100.00
62201;BME280;48197;42.732;27.192;2023-04-05T04:42:48;99079.03;;;2.61;100.00
62201;BME280;48197;42.732;27.192;2023-04-05T04:45:15;99084.59;;;2.68;100.00
62201;BME280;48197;42.732;27.192;2023-04-05T04:47:45;99074.94;;;2.74;100.00
62201;BME280;48197;42.732;27.192;2023-04-05T04:50:15;99082.16;;;2.86;100.00
62201;BME280;48197;42.732;27.192;2023-04-05T04:52:42;99093.09;;;2.90;100.00
62201;BME280;48197;42.732;27.192;2023-04-05T04:55:09;99099.44;;;2.97;100.00
62201;BME280;48197;42.732;27.192;2023-04-05T04:57:39;99115.94;;;3.04;100.00
62201;BME280;48197;42.732;27.192;2023-04-05T05:00:07;99097.66;;;3.09;100.00
62201;BME280;48197;42.732;27.192;2023-04-05T05:02:41;99100.09;;;3.14;100.00
62201;BME280;48197;42.732;27.192;2023-04-05T05:05:10;99120.84;;;3.22;100.00
62201;BME280;48197;42.732;27.192;2023-04-05T05:07:37;99121.47;;;3.38;100.00
62201;BME280;48197;42.732;27.192;2023-04-05T05:10:06;99126.59;;;3.43;100.00
62201;BME280;48197;42.732;27.192;2023-04-05T05:12:33;99132.88;;;3.47;100.00
62201;BME280;48197;42.732;27.192;2023-04-05T05:15:00;99134.47;;;3.48;100.00
62201;BME280;48197;42.732;27.192;2023-04-05T05:17:26;99150.13;;;3.52;100.00
62201;BME280;48197;42.732;27.192;2023-04-05T05:19:53;99127.53;;;3.55;100.00
62201;BME280;48197;42.732;27.192;2023-04-05T05:22:20;99125.41;;;3.75;100.00
62201;BME280;48197;42.732;27.192;2023-04-05T05:24:47;99133.84;;;3.93;100.00
62201;BME280;48197;42.732;27.192;2023-04-05T05:27:13;99140.97;;;4.04;100.00
62201;BME280;48197;42.732;27.192;2023-04-05T05:29:40;99147.50;;;4.30;100.00
62201;BME280;48197;42.732;27.192;2023-04-05T05:32:07;99148.03;;;4.46;100.00
62201;BME280;48197;42.732;27.192;2023-04-05T05:34:34;99141.44;;;4.51;100.00
62201;BME280;48197;42.732;27.192;2023-04-05T05:37:00;99149.38;;;4.67;100.00
62201;BME280;48197;42.732;27.192;2023-04-05T05:39:27;99156.00;;;5.18;100.00
62201;BME280;48197;42.732;27.192;2023-04-05T05:41:54;99163.34;;;5.72;100.00
62201;BME280;48197;42.732;27.192;2023-04-05T05:44:20;99175.72;;;6.32;100.00
62201;BME280;48197;42.732;27.192;2023-04-05T05:46:48;99168.66;;;6.24;100.00
62201;BME280;48197;42.732;27.192;2023-04-05T05:49:15;99171.06;;;6.58;100.00
62201;BME280;48197;42.732;27.192;2023-04-05T05:51:41;99171.84;;;6.80;100.00
62201;BME280;48197;42.732;27.192;2023-04-05T05:54:08;99176.56;;;7.05;100.00
62201;BME280;48197;42.732;27.192;2023-04-05T05:56:35;99173.41;;;7.21;100.00
62201;BME280;48197;42.732;27.192;2023-04-05T05:59:01;99171.47;;;7.07;100.00
62201;BME280;48197;42.732;27.192;2023-04-05T06:01:27;99179.72;;;6.85;100.00
62201;BME280;48197;42.732;27.192;2023-04-05T06:03:54;99182.06;;;6.98;100.00
62201;BME280;48197;42.732;27.192;2023-04-05T06:06:21;99179.72;;;6.82;100.00
62201;BME280;48197;42.732;27.192;2023-04-05T06:08:48;99183.06;;;7.86;100.00
62201;BME280;48197;42.732;27.192;2023-04-05T06:11:17;99162.84;;;8.18;100.00
62201;BME280;48197;42.732;27.192;2023-04-05T06:13:43;99193.72;;;7.70;100.00
62201;BME280;48197;42.732;27.192;2023-04-05T06:16:10;99206.66;;;7.76;100.00
62201;BME280;48197;42.732;27.192;2023-04-05T06:18:37;99201.50;;;7.93;100.00
62201;BME280;48197;42.732;27.192;2023-04-05T06:21:04;99209.78;;;7.82;100.00
62201;BME280;48197;42.732;27.192;2023-04-05T06:23:30;99215.78;;;7.41;100.00
62201;BME280;48197;42.732;27.192;2023-04-05T06:25:57;99212.69;;;6.92;100.00
62201;BME280;48197;42.732;27.192;2023-04-05T06:28:23;99219.72;;;6.68;100.00
62201;BME280;48197;42.732;27.192;2023-04-05T06:30:51;99220.09;;;6.60;100.00
62201;BME280;48197;42.732;27.192;2023-04-05T06:33:17;99222.84;;;6.56;100.00
62201;BME280;48197;42.732;27.192;2023-04-05T06:35:45;99219.69;;;6.47;100.00
62201;BME280;48197;42.732;27.192;2023-04-05T06:38:11;99226.69;;;6.33;100.00
62201;BME280;48197;42.732;27.192;2023-04-05T06:40:38;99228.31;;;6.38;100.00
62201;BME280;48197;42.732;27.192;2023-04-05T06:43:05;99234.16;;;6.37;100.00
62201;BME280;48197;42.732;27.192;2023-04-05T06:45:32;99237.28;;;6.31;100.00
62201;BME280;48197;42.732;27.192;2023-04-05T06:47:58;99236.94;;;6.40;100.00
62201;BME280;48197;42.732;27.192;2023-04-05T06:50:24;99239.66;;;6.44;100.00
62201;BME280;48197;42.732;27.192;2023-04-05T06:52:51;99234.19;;;6.44;100.00
62201;BME280;48197;42.732;27.192;2023-04-05T06:55:19;99227.16;;;6.61;100.00
62201;BME280;48197;42.732;27.192;2023-04-05T06:57:45;99225.59;;;6.63;100.00
62201;BME280;48197;42.732;27.192;2023-04-05T07:00:11;99235.44;;;6.68;100.00
62201;BME280;48197;42.732;27.192;2023-04-05T07:02:38;99230.31;;;6.84;100.00
62201;BME280;48197;42.732;27.192;2023-04-05T07:05:05;99236.97;;;6.76;100.00
62201;BME280;48197;42.732;27.192;2023-04-05T07:07:32;99232.69;;;7.14;100.00
62201;BME280;48197;42.732;27.192;2023-04-05T07:09:58;99241.34;;;7.24;100.00
62201;BME280;48197;42.732;27.192;2023-04-05T07:12:25;99239.38;;;7.24;100.00
62201;BME280;48197;42.732;27.192;2023-04-05T07:14:52;99244.09;;;7.34;100.00
62201;BME280;48197;42.732;27.192;2023-04-05T07:17:18;99242.84;;;7.68;100.00
62201;BME280;48197;42.732;27.192;2023-04-05T07:19:45;99247.94;;;7.76;100.00
62201;BME280;48197;42.732;27.192;2023-04-05T07:22:11;99249.88;;;7.90;100.00
62201;BME280;48197;42.732;27.192;2023-04-05T07:24:38;99255.41;;;7.76;100.00
62201;BME280;48197;42.732;27.192;2023-04-05T07:27:04;99257.34;;;7.90;100.00
62201;BME280;48197;42.732;27.192;2023-04-05T07:29:31;99263.59;;;7.97;100.00
62201;BME280;48197;42.732;27.192;2023-04-05T07:32:00;99266.03;;;7.63;100.00
62201;BME280;48197;42.732;27.192;2023-04-05T07:34:26;99266.00;;;7.88;100.00
62201;BME280;48197;42.732;27.192;2023-04-05T07:36:55;99278.56;;;8.00;100.00
62201;BME280;48197;42.732;27.192;2023-04-05T07:39:22;99280.03;;;8.23;100.00
62201;BME280;48197;42.732;27.192;2023-04-05T07:41:49;99270.88;;;8.58;100.00
62201;BME280;48197;42.732;27.192;2023-04-05T07:44:16;99271.88;;;8.86;100.00
62201;BME280;48197;42.732;27.192;2023-04-05T07:46:43;99276.13;;;8.97;100.00
62201;BME280;48197;42.732;27.192;2023-04-05T07:49:10;99278.03;;;9.08;100.00
62201;BME280;48197;42.732;27.192;2023-04-05T07:51:37;99277.22;;;8.48;100.00
62201;BME280;48197;42.732;27.192;2023-04-05T07:54:04;99279.97;;;8.48;100.00
62201;BME280;48197;42.732;27.192;2023-04-05T07:56:31;99283.16;;;8.28;100.00
62201;BME280;48197;42.732;27.192;2023-04-05T07:58:57;99277.47;;;9.27;100.00
62201;BME280;48197;42.732;27.192;2023-04-05T08:01:24;99286.53;;;9.73;100.00
62201;BME280;48197;42.732;27.192;2023-04-05T08:03:53;99282.00;;;10.28;100.00
62201;BME280;48197;42.732;27.192;2023-04-05T08:06:22;99288.78;;;10.54;100.00
62201;BME280;48197;42.732;27.192;2023-04-05T08:08:49;99295.44;;;9.88;100.00
62201;BME280;48197;42.732;27.192;2023-04-05T10:12:58;99311.09;;;10.39;100.00
62201;BME280;48197;42.732;27.192;2023-04-05T10:15:25;99310.22;;;11.04;100.00
62201;BME280;48197;42.732;27.192;2023-04-05T10:17:55;99310.91;;;10.85;96.89
62201;BME280;48197;42.732;27.192;2023-04-05T10:20:26;99307.63;;;10.93;95.08
62201;BME280;48197;42.732;27.192;2023-04-05T10:23:00;99308.19;;;11.08;96.43
62201;BME280;48197;42.732;27.192;2023-04-05T10:25:37;99313.81;;;11.28;94.14
62201;BME280;48197;42.732;27.192;2023-04-05T10:28:51;99313.41;;;11.02;95.78
62201;BME280;48197;42.732;27.192;2023-04-05T10:30:58;99324.38;;;10.82;95.06
62201;BME280;48197;42.732;27.192;2023-04-05T10:33:34;99318.00;;;10.86;94.92
62201;BME280;48197;42.732;27.192;2023-04-05T10:39:09;99315.84;;;10.70;96.14
62201;BME280;48197;42.732;27.192;2023-04-05T10:42:19;99315.16;;;10.24;94.41
62201;BME280;48197;42.732;27.192;2023-04-05T10:44:28;99322.03;;;10.50;93.88
62201;BME280;48197;42.732;27.192;2023-04-05T10:46:55;99318.84;;;10.82;93.95
62201;BME280;48197;42.732;27.192;2023-04-05T10:51:50;99334.41;;;10.69;89.66
62201;BME280;48197;42.732;27.192;2023-04-05T10:54:18;99321.22;;;10.80;91.75
62201;BME280;48197;42.732;27.192;2023-04-05T10:56:44;99327.31;;;10.99;91.25
62201;BME280;48197;42.732;27.192;2023-04-05T10:59:12;99328.91;;;10.96;90.17
62201;BME280;48197;42.732;27.192;2023-04-05T11:01:39;99317.88;;;11.20;91.33
62201;BME280;48197;42.732;27.192;2023-04-05T11:04:12;99322.22;;;11.21;90.21
62201;BME280;48197;42.732;27.192;2023-04-05T11:06:39;99324.38;;;11.10;89.72
62201;BME280;48197;42.732;27.192;2023-04-05T11:09:13;99317.06;;;11.23;91.85
62201;BME280;48197;42.732;27.192;2023-04-05T11:11:42;99310.88;;;11.39;90.76
62201;BME280;48197;42.732;27.192;2023-04-05T11:16:49;99315.84;;;11.24;90.01
62201;BME280;48197;42.732;27.192;2023-04-05T11:19:18;99320.50;;;11.31;88.13
62201;BME280;48197;42.732;27.192;2023-04-05T11:21:45;99308.59;;;11.34;89.27
62201;BME280;48197;42.732;27.192;2023-04-05T11:24:13;99321.22;;;11.82;90.51
62201;BME280;48197;42.732;27.192;2023-04-05T11:29:10;99322.88;;;11.29;82.88
62201;BME280;48197;42.732;27.192;2023-04-05T11:31:56;99315.91;;;10.93;87.23
62201;BME280;48197;42.732;27.192;2023-04-05T11:34:23;99311.09;;;11.01;86.32
62201;BME280;48197;42.732;27.192;2023-04-05T11:36:50;99310.97;;;11.35;86.73
62201;BME280;48197;42.732;27.192;2023-04-05T11:41:55;99301.44;;;11.60;89.42
62201;BME280;48197;42.732;27.192;2023-04-05T11:44:23;99317.22;;;11.39;88.26
62201;BME280;48197;42.732;27.192;2023-04-05T11:46:50;99313.00;;;11.55;90.69
62201;BME280;48197;42.732;27.192;2023-04-05T11:49:18;99319.44;;;11.72;90.16
62201;BME280;48197;42.732;27.192;2023-04-05T11:51:46;99316.69;;;11.95;92.82
62201;BME280;48197;42.732;27.192;2023-04-05T11:54:26;99306.19;;;12.07;90.69
62201;BME280;48197;42.732;27.192;2023-04-05T11:56:53;99315.34;;;11.80;89.19
62201;BME280;48197;42.732;27.192;2023-04-05T11:59:26;99311.50;;;11.74;92.93
62201;BME280;48197;42.732;27.192;2023-04-05T12:02:02;99319.38;;;11.99;92.88
62201;BME280;48197;42.732;27.192;2023-04-05T12:04:30;99327.38;;;11.70;90.99
62201;BME280;48197;42.732;27.192;2023-04-05T12:07:09;99317.69;;;11.58;93.92
62201;BME280;48197;42.732;27.192;2023-04-05T12:09:51;99324.91;;;11.75;93.52
62201;BME280;48197;42.732;27.192;2023-04-05T12:12:20;99315.94;;;12.15;96.60
62201;BME280;48197;42.732;27.192;2023-04-05T12:14:47;99327.81;;;11.92;90.03
62201;BME280;48197;42.732;27.192;2023-04-05T12:17:14;99323.44;;;11.43;91.33
62201;BME280;48197;42.732;27.192;2023-04-05T12:19:41;99322.75;;;11.12;92.52
62201;BME280;48197;42.732;27.192;2023-04-05T12:22:07;99315.91;;;10.93;92.14
62201;BME280;48197;42.732;27.192;2023-04-05T12:24:34;99317.53;;;10.91;95.98
62201;BME280;48197;42.732;27.192;2023-04-05T12:27:01;99319.75;;;10.72;96.41
62201;BME280;48197;42.732;27.192;2023-04-05T12:29:27;99321.78;;;10.37;97.06
62201;BME280;48197;42.732;27.192;2023-04-05T12:31:54;99320.78;;;10.17;97.92
62201;BME280;48197;42.732;27.192;2023-04-05T12:34:23;99319.34;;;10.05;98.78
62201;BME280;48197;42.732;27.192;2023-04-05T12:36:53;99312.47;;;9.82;100.00
62201;BME280;48197;42.732;27.192;2023-04-05T12:39:19;99304.94;;;9.87;100.00
62201;BME280;48197;42.732;27.192;2023-04-05T12:41:55;99302.75;;;9.71;99.01
62201;BME280;48197;42.732;27.192;2023-04-05T12:44:30;99308.66;;;9.69;98.50
62201;BME280;48197;42.732;27.192;2023-04-05T12:47:03;99312.63;;;9.65;98.99
62201;BME280;48197;42.732;27.192;2023-04-05T12:49:37;99305.63;;;9.56;97.03
62201;BME280;48197;42.732;27.192;2023-04-05T12:52:04;99304.09;;;9.48;97.56
62201;BME280;48197;42.732;27.192;2023-04-05T12:54:30;99302.81;;;9.60;98.47
62201;BME280;48197;42.732;27.192;2023-04-05T13:09:08;99293.63;;;10.12;96.83
62201;BME280;48197;42.732;27.192;2023-04-05T13:11:34;99306.28;;;10.09;93.86
62201;BME280;48197;42.732;27.192;2023-04-05T13:14:01;99309.75;;;10.13;94.08
62201;BME280;48197;42.732;27.192;2023-04-05T13:16:27;99309.72;;;10.20;95.26
62201;BME280;48197;42.732;27.192;2023-04-05T13:18:53;99310.25;;;10.05;94.38
62201;BME280;48197;42.732;27.192;2023-04-05T13:21:20;99312.50;;;9.79;95.89
62201;BME280;48197;42.732;27.192;2023-04-05T13:23:46;99304.00;;;9.59;96.36
62201;BME280;48197;42.732;27.192;2023-04-05T13:26:13;99301.66;;;9.57;96.91
62201;BME280;48197;42.732;27.192;2023-04-05T13:28:40;99298.13;;;9.57;94.86
62201;BME280;48197;42.732;27.192;2023-04-05T13:31:06;99296.91;;;9.58;96.62
62201;BME280;48197;42.732;27.192;2023-04-05T13:33:33;99306.41;;;9.57;95.56
62201;BME280;48197;42.732;27.192;2023-04-05T13:36:00;99309.16;;;9.53;94.43
62201;BME280;48197;42.732;27.192;2023-04-05T13:38:26;99305.25;;;9.54;96.66
62201;BME280;48197;42.732;27.192;2023-04-05T13:40:52;99304.09;;;9.48;95.96
62201;BME280;48197;42.732;27.192;2023-04-05T13:43:19;99310.06;;;9.43;96.35
62201;BME280;48197;42.732;27.192;2023-04-05T13:45:45;99308.94;;;9.37;96.58
62201;BME280;48197;42.732;27.192;2023-04-05T13:48:12;99307.03;;;9.27;98.27
62201;BME280;48197;42.732;27.192;2023-04-05T13:50:38;99301.50;;;9.30;98.81
62201;BME280;48197;42.732;27.192;2023-04-05T13:53:06;99310.94;;;9.33;99.69
62201;BME280;48197;42.732;27.192;2023-04-05T13:55:32;99309.34;;;9.35;100.00
62201;BME280;48197;42.732;27.192;2023-04-05T13:57:59;99310.50;;;9.34;100.00
62201;BME280;48197;42.732;27.192;2023-04-05T14:00:26;99319.28;;;9.22;98.13
62201;BME280;48197;42.732;27.192;2023-04-05T14:02:52;99320.06;;;9.23;99.00
62201;BME280;48197;42.732;27.192;2023-04-05T14:05:18;99318.53;;;9.18;100.00
62201;BME280;48197;42.732;27.192;2023-04-05T14:07:45;99318.09;;;9.19;100.00
62201;BME280;48197;42.732;27.192;2023-04-05T14:10:11;99318.97;;;9.09;99.04
62201;BME280;48197;42.732;27.192;2023-04-05T14:12:38;99318.16;;;9.09;100.00
62201;BME280;48197;42.732;27.192;2023-04-05T14:15:05;99311.13;;;9.04;100.00
62201;BME280;48197;42.732;27.192;2023-04-05T14:17:30;99319.88;;;8.92;100.00
62201;BME280;48197;42.732;27.192;2023-04-05T14:19:57;99316.38;;;8.88;100.00
62201;BME280;48197;42.732;27.192;2023-04-05T14:22:24;99325.41;;;8.85;100.00
62201;BME280;48197;42.732;27.192;2023-04-05T14:24:51;99323.50;;;8.78;100.00
62201;BME280;48197;42.732;27.192;2023-04-05T14:27:17;99325.09;;;8.75;100.00
62201;BME280;48197;42.732;27.192;2023-04-05T14:29:47;99328.59;;;8.79;100.00
62201;BME280;48197;42.732;27.192;2023-04-05T14:32:13;99330.94;;;8.85;100.00
62201;BME280;48197;42.732;27.192;2023-04-05T14:34:40;99321.06;;;8.87;100.00
62201;BME280;48197;42.732;27.192;2023-04-05T14:37:07;99333.31;;;8.83;100.00
62201;BME280;48197;42.732;27.192;2023-04-05T14:39:33;99337.69;;;8.73;100.00
62201;BME280;48197;42.732;27.192;2023-04-05T14:42:00;99335.78;;;8.63;100.00
62201;BME280;48197;42.732;27.192;2023-04-05T14:44:27;99337.75;;;8.55;100.00
62201;BME280;48197;42.732;27.192;2023-04-05T14:46:53;99348.00;;;8.51;100.00
62201;BME280;48197;42.732;27.192;2023-04-05T14:49:20;99345.63;;;8.53;100.00
62201;BME280;48197;42.732;27.192;2023-04-05T14:51:47;99345.28;;;8.47;100.00
62201;BME280;48197;42.732;27.192;2023-04-05T14:54:13;99348.81;;;8.48;100.00
62201;BME280;48197;42.732;27.192;2023-04-05T14:56:40;99346.06;;;8.51;100.00
62201;BME280;48197;42.732;27.192;2023-04-05T14:59:07;99350.78;;;8.47;100.00
62201;BME280;48197;42.732;27.192;2023-04-05T15:01:34;99352.34;;;8.45;100.00
62201;BME280;48197;42.732;27.192;2023-04-05T15:04:02;99352.34;;;8.37;100.00
62201;BME280;48197;42.732;27.192;2023-04-05T15:06:29;99351.56;;;8.37;100.00
62201;BME280;48197;42.732;27.192;2023-04-05T15:08:55;99360.22;;;8.39;100.00
62201;BME280;48197;42.732;27.192;2023-04-05T15:11:21;99353.16;;;8.45;100.00
62201;BME280;48197;42.732;27.192;2023-04-05T15:13:48;99353.94;;;8.46;100.00
62201;BME280;48197;42.732;27.192;2023-04-05T15:16:15;99351.19;;;8.38;100.00
62201;BME280;48197;42.732;27.192;2023-04-05T15:18:41;99359.06;;;8.33;100.00
62201;BME280;48197;42.732;27.192;2023-04-05T15:21:08;99365.38;;;8.26;100.00
62201;BME280;48197;42.732;27.192;2023-04-05T15:23:34;99357.94;;;8.16;100.00
62201;BME280;48197;42.732;27.192;2023-04-05T15:26:01;99370.53;;;8.13;100.00
62201;BME280;48197;42.732;27.192;2023-04-05T15:28:28;99361.47;;;8.13;100.00
62201;BME280;48197;42.732;27.192;2023-04-05T15:30:54;99361.09;;;8.11;100.00
62201;BME280;48197;42.732;27.192;2023-04-05T15:33:21;99370.53;;;8.03;100.00
62201;BME280;48197;42.732;27.192;2023-04-05T15:35:47;99367.41;;;8.01;100.00
62201;BME280;48197;42.732;27.192;2023-04-05T15:38:14;99366.22;;;7.94;100.00